sensor_id;sensor_type;location;lat;lon;timestamp;temperature;humidity
48752;DHT22;34544;48.836;9.174;2022-12-18T00:01:57;-8.50;99.90
48752;DHT22;34544;48.836;9.174;2022-12-18T00:04:25;-8.50;99.90
48752;DHT22;34544;48.836;9.174;2022-12-18T00:06:52;-8.50;99.90
48752;DHT22;34544;48.836;9.174;2022-12-18T00:09:18;-8.60;99.90
48752;DHT22;34544;48.836;9.174;2022-12-18T00:11:44;-8.60;99.90
48752;DHT22;34544;48.836;9.174;2022-12-18T00:14:13;-8.60;99.90
48752;DHT22;34544;48.836;9.174;2022-12-18T00:16:42;-8.60;99.90
48752;DHT22;34544;48.836;9.174;2022-12-18T00:19:10;-8.60;99.90
48752;DHT22;34544;48.836;9.174;2022-12-18T00:21:36;-8.60;99.90
48752;DHT22;34544;48.836;9.174;2022-12-18T00:24:01;-8.60;99.90
48752;DHT22;34544;48.836;9.174;2022-12-18T00:26:30;-8.60;99.90
48752;DHT22;34544;48.836;9.174;2022-12-18T00:29:03;-8.70;99.90
48752;DHT22;34544;48.836;9.174;2022-12-18T00:31:29;-8.70;99.90
48752;DHT22;34544;48.836;9.174;2022-12-18T00:33:56;-8.70;99.90
48752;DHT22;34544;48.836;9.174;2022-12-18T00:36:27;-8.70;99.90
48752;DHT22;34544;48.836;9.174;2022-12-18T00:38:54;-8.70;99.90
48752;DHT22;34544;48.836;9.174;2022-12-18T00:41:20;-8.80;99.90
48752;DHT22;34544;48.836;9.174;2022-12-18T00:44:15;-8.80;99.90
48752;DHT22;34544;48.836;9.174;2022-12-18T00:46:42;-8.80;99.90
48752;DHT22;34544;48.836;9.174;2022-12-18T00:49:08;-8.80;99.90
48752;DHT22;34544;48.836;9.174;2022-12-18T00:51:33;-8.90;99.90
48752;DHT22;34544;48.836;9.174;2022-12-18T00:53:59;-8.90;99.90
48752;DHT22;34544;48.836;9.174;2022-12-18T00:56:25;-8.90;99.90
48752;DHT22;34544;48.836;9.174;2022-12-18T00:58:52;-8.90;99.90
48752;DHT22;34544;48.836;9.174;2022-12-18T01:01:17;-8.90;99.90
48752;DHT22;34544;48.836;9.174;2022-12-18T01:03:43;-8.90;99.90
48752;DHT22;34544;48.836;9.174;2022-12-18T01:06:11;-8.90;99.90
48752;DHT22;34544;48.836;9.174;2022-12-18T01:08:38;-9.00;99.90
48752;DHT22;34544;48.836;9.174;2022-12-18T01:11:11;-9.00;99.90
48752;DHT22;34544;48.836;9.174;2022-12-18T01:13:38;-9.00;99.90
48752;DHT22;34544;48.836;9.174;2022-12-18T01:16:04;-9.00;99.90
48752;DHT22;34544;48.836;9.174;2022-12-18T01:18:29;-9.00;99.90
48752;DHT22;34544;48.836;9.174;2022-12-18T01:20:58;-9.00;99.90
48752;DHT22;34544;48.836;9.174;2022-12-18T01:23:26;-9.10;99.90
48752;DHT22;34544;48.836;9.174;2022-12-18T01:25:52;-9.10;99.90
48752;DHT22;34544;48.836;9.174;2022-12-18T01:28:17;-9.10;99.90
48752;DHT22;34544;48.836;9.174;2022-12-18T01:30:43;-9.10;99.90
48752;DHT22;34544;48.836;9.174;2022-12-18T01:33:09;-9.10;99.90
48752;DHT22;34544;48.836;9.174;2022-12-18T01:35:42;-9.10;99.90
48752;DHT22;34544;48.836;9.174;2022-12-18T01:38:08;-9.10;99.90
48752;DHT22;34544;48.836;9.174;2022-12-18T01:40:34;-9.10;99.90
48752;DHT22;34544;48.836;9.174;2022-12-18T01:43:00;-9.10;99.90
48752;DHT22;34544;48.836;9.174;2022-12-18T01:45:31;-9.10;99.90
48752;DHT22;34544;48.836;9.174;2022-12-18T01:48:02;-9.10;99.90
48752;DHT22;34544;48.836;9.174;2022-12-18T01:50:38;-9.00;99.90
48752;DHT22;34544;48.836;9.174;2022-12-18T01:53:13;-9.10;99.90
48752;DHT22;34544;48.836;9.174;2022-12-18T01:55:46;-9.10;99.90
48752;DHT22;34544;48.836;9.174;2022-12-18T01:58:12;-9.10;99.90
48752;DHT22;34544;48.836;9.174;2022-12-18T02:00:38;-9.00;99.90
48752;DHT22;34544;48.836;9.174;2022-12-18T02:03:04;-9.10;99.90
48752;DHT22;34544;48.836;9.174;2022-12-18T02:08:48;-9.00;99.90
48752;DHT22;34544;48.836;9.174;2022-12-18T02:14:12;-8.90;99.90
48752;DHT22;34544;48.836;9.174;2022-12-18T02:16:45;-8.80;99.90
48752;DHT22;34544;48.836;9.174;2022-12-18T02:24:54;-8.60;99.90
48752;DHT22;34544;48.836;9.174;2022-12-18T02:27:23;-8.60;99.90
48752;DHT22;34544;48.836;9.174;2022-12-18T02:29:54;-8.60;99.90
48752;DHT22;34544;48.836;9.174;2022-12-18T02:32:25;-8.50;99.90
48752;DHT22;34544;48.836;9.174;2022-12-18T02:34:52;-8.50;99.90
48752;DHT22;34544;48.836;9.174;2022-12-18T02:37:22;-8.50;99.90
48752;DHT22;34544;48.836;9.174;2022-12-18T02:39:49;-8.40;99.90
48752;DHT22;34544;48.836;9.174;2022-12-18T02:42:18;-8.40;99.90
48752;DHT22;34544;48.836;9.174;2022-12-18T02:44:49;-8.40;99.90
48752;DHT22;34544;48.836;9.174;2022-12-18T02:47:22;-8.40;99.90
48752;DHT22;34544;48.836;9.174;2022-12-18T02:55:32;-8.30;99.90
48752;DHT22;34544;48.836;9.174;2022-12-18T03:01:16;-8.30;99.90
48752;DHT22;34544;48.836;9.174;2022-12-18T03:03:52;-8.20;99.90
48752;DHT22;34544;48.836;9.174;2022-12-18T03:06:28;-8.20;99.90
48752;DHT22;34544;48.836;9.174;2022-12-18T03:09:01;-8.20;99.90
48752;DHT22;34544;48.836;9.174;2022-12-18T03:11:32;-8.20;99.90
48752;DHT22;34544;48.836;9.174;2022-12-18T03:14:19;-8.20;99.90
48752;DHT22;34544;48.836;9.174;2022-12-18T03:16:50;-8.20;99.90
48752;DHT22;34544;48.836;9.174;2022-12-18T03:19:22;-8.20;99.90
48752;DHT22;34544;48.836;9.174;2022-12-18T03:21:56;-8.10;99.90
48752;DHT22;34544;48.836;9.174;2022-12-18T03:24:26;-8.20;99.90
48752;DHT22;34544;48.836;9.174;2022-12-18T03:26:57;-8.10;99.90
48752;DHT22;34544;48.836;9.174;2022-12-18T03:29:35;-8.10;99.90
48752;DHT22;34544;48.836;9.174;2022-12-18T03:32:12;-8.00;99.90
48752;DHT22;34544;48.836;9.174;2022-12-18T03:34:42;-8.00;99.90
48752;DHT22;34544;48.836;9.174;2022-12-18T03:37:12;-8.10;99.90
48752;DHT22;34544;48.836;9.174;2022-12-18T03:39:40;-8.10;99.90
48752;DHT22;34544;48.836;9.174;2022-12-18T03:42:37;-8.10;99.90
48752;DHT22;34544;48.836;9.174;2022-12-18T03:48:04;-8.10;99.90
48752;DHT22;34544;48.836;9.174;2022-12-18T03:50:49;-8.10;99.90
48752;DHT22;34544;48.836;9.174;2022-12-18T03:53:47;-8.20;99.90
48752;DHT22;34544;48.836;9.174;2022-12-18T03:56:16;-8.20;99.90
48752;DHT22;34544;48.836;9.174;2022-12-18T03:58:43;-8.20;99.90
48752;DHT22;34544;48.836;9.174;2022-12-18T04:01:23;-8.30;99.90
48752;DHT22;34544;48.836;9.174;2022-12-18T04:03:52;-8.30;99.90
48752;DHT22;34544;48.836;9.174;2022-12-18T04:06:19;-8.20;99.90
48752;DHT22;34544;48.836;9.174;2022-12-18T04:08:46;-8.20;99.90
48752;DHT22;34544;48.836;9.174;2022-12-18T04:11:16;-8.20;99.90
48752;DHT22;34544;48.836;9.174;2022-12-18T04:13:43;-8.20;99.90
48752;DHT22;34544;48.836;9.174;2022-12-18T04:16:17;-8.10;99.90
48752;DHT22;34544;48.836;9.174;2022-12-18T04:18:44;-8.10;99.90
48752;DHT22;34544;48.836;9.174;2022-12-18T04:21:10;-8.00;99.90
48752;DHT22;34544;48.836;9.174;2022-12-18T04:23:37;-7.90;99.90
48752;DHT22;34544;48.836;9.174;2022-12-18T04:26:02;-7.90;99.90
48752;DHT22;34544;48.836;9.174;2022-12-18T04:28:50;-7.90;99.90
48752;DHT22;34544;48.836;9.174;2022-12-18T04:31:15;-7.80;99.90
48752;DHT22;34544;48.836;9.174;2022-12-18T04:33:41;-7.80;99.90
48752;DHT22;34544;48.836;9.174;2022-12-18T04:36:07;-7.70;99.90
48752;DHT22;34544;48.836;9.174;2022-12-18T04:38:34;-7.70;99.90
48752;DHT22;34544;48.836;9.174;2022-12-18T04:41:05;-7.70;99.90
48752;DHT22;34544;48.836;9.174;2022-12-18T04:43:31;-7.70;99.90
48752;DHT22;34544;48.836;9.174;2022-12-18T04:46:05;-7.60;99.90
48752;DHT22;34544;48.836;9.174;2022-12-18T04:48:31;-7.60;99.90
48752;DHT22;34544;48.836;9.174;2022-12-18T04:50:57;-7.60;99.90
48752;DHT22;34544;48.836;9.174;2022-12-18T04:53:23;-7.60;99.90
48752;DHT22;34544;48.836;9.174;2022-12-18T04:55:48;-7.60;99.90
48752;DHT22;34544;48.836;9.174;2022-12-18T04:58:14;-7.60;99.90
48752;DHT22;34544;48.836;9.174;2022-12-18T05:00:40;-7.60;99.90
48752;DHT22;34544;48.836;9.174;2022-12-18T05:03:05;-7.70;99.90
48752;DHT22;34544;48.836;9.174;2022-12-18T05:05:31;-7.70;99.90
48752;DHT22;34544;48.836;9.174;2022-12-18T05:07:57;-7.70;99.90
48752;DHT22;34544;48.836;9.174;2022-12-18T05:10:23;-7.70;99.90
48752;DHT22;34544;48.836;9.174;2022-12-18T05:12:48;-7.70;99.90
48752;DHT22;34544;48.836;9.174;2022-12-18T05:15:27;-7.80;99.90
48752;DHT22;34544;48.836;9.174;2022-12-18T05:17:53;-7.80;99.90
48752;DHT22;34544;48.836;9.174;2022-12-18T05:20:19;-7.80;99.90
48752;DHT22;34544;48.836;9.174;2022-12-18T05:22:45;-7.90;99.90
48752;DHT22;34544;48.836;9.174;2022-12-18T05:25:10;-7.90;99.90
48752;DHT22;34544;48.836;9.174;2022-12-18T05:27:36;-7.90;99.90
48752;DHT22;34544;48.836;9.174;2022-12-18T05:30:02;-7.90;99.90
48752;DHT22;34544;48.836;9.174;2022-12-18T05:32:28;-7.90;99.90
48752;DHT22;34544;48.836;9.174;2022-12-18T05:34:54;-8.00;99.90
48752;DHT22;34544;48.836;9.174;2022-12-18T05:37:19;-8.00;99.90
48752;DHT22;34544;48.836;9.174;2022-12-18T05:39:46;-8.00;99.90
48752;DHT22;34544;48.836;9.174;2022-12-18T05:42:11;-8.00;99.90
48752;DHT22;34544;48.836;9.174;2022-12-18T05:44:37;-8.00;99.90
48752;DHT22;34544;48.836;9.174;2022-12-18T05:47:03;-8.00;99.90
48752;DHT22;34544;48.836;9.174;2022-12-18T05:49:29;-8.00;99.90
48752;DHT22;34544;48.836;9.174;2022-12-18T05:51:55;-8.00;99.90
48752;DHT22;34544;48.836;9.174;2022-12-18T05:54:21;-8.10;99.90
48752;DHT22;34544;48.836;9.174;2022-12-18T05:56:47;-8.10;99.90
48752;DHT22;34544;48.836;9.174;2022-12-18T05:59:13;-8.10;99.90
48752;DHT22;34544;48.836;9.174;2022-12-18T06:01:38;-8.10;99.90
48752;DHT22;34544;48.836;9.174;2022-12-18T06:04:04;-8.10;99.90
48752;DHT22;34544;48.836;9.174;2022-12-18T06:06:30;-8.10;99.90
48752;DHT22;34544;48.836;9.174;2022-12-18T06:08:56;-8.10;99.90
48752;DHT22;34544;48.836;9.174;2022-12-18T06:11:24;-8.10;99.90
48752;DHT22;34544;48.836;9.174;2022-12-18T06:13:51;-8.10;99.90
48752;DHT22;34544;48.836;9.174;2022-12-18T06:16:17;-8.10;99.90
48752;DHT22;34544;48.836;9.174;2022-12-18T06:18:43;-8.20;99.90
48752;DHT22;34544;48.836;9.174;2022-12-18T06:21:08;-8.20;99.90
48752;DHT22;34544;48.836;9.174;2022-12-18T06:23:34;-8.20;99.90
48752;DHT22;34544;48.836;9.174;2022-12-18T06:26:09;-8.30;99.90
48752;DHT22;34544;48.836;9.174;2022-12-18T06:28:35;-8.40;99.90
48752;DHT22;34544;48.836;9.174;2022-12-18T06:31:01;-8.40;99.90
48752;DHT22;34544;48.836;9.174;2022-12-18T06:33:27;-8.50;99.90
48752;DHT22;34544;48.836;9.174;2022-12-18T06:35:54;-8.50;99.90
48752;DHT22;34544;48.836;9.174;2022-12-18T06:38:19;-8.60;99.90
48752;DHT22;34544;48.836;9.174;2022-12-18T06:40:45;-8.70;99.90
48752;DHT22;34544;48.836;9.174;2022-12-18T06:43:11;-8.70;99.90
48752;DHT22;34544;48.836;9.174;2022-12-18T06:45:36;-8.80;99.90
48752;DHT22;34544;48.836;9.174;2022-12-18T06:48:02;-8.90;99.90
48752;DHT22;34544;48.836;9.174;2022-12-18T06:50:28;-8.90;99.90
48752;DHT22;34544;48.836;9.174;2022-12-18T06:52:53;-8.90;99.90
48752;DHT22;34544;48.836;9.174;2022-12-18T06:55:19;-9.00;99.90
48752;DHT22;34544;48.836;9.174;2022-12-18T06:57:44;-9.00;99.90
48752;DHT22;34544;48.836;9.174;2022-12-18T07:00:10;-9.00;99.90
48752;DHT22;34544;48.836;9.174;2022-12-18T07:02:36;-9.10;99.90
48752;DHT22;34544;48.836;9.174;2022-12-18T07:05:02;-9.10;99.90
48752;DHT22;34544;48.836;9.174;2022-12-18T07:07:28;-9.10;99.90
48752;DHT22;34544;48.836;9.174;2022-12-18T07:09:54;-9.10;99.90
48752;DHT22;34544;48.836;9.174;2022-12-18T07:12:19;-9.20;99.90
48752;DHT22;34544;48.836;9.174;2022-12-18T07:14:45;-9.20;99.90
48752;DHT22;34544;48.836;9.174;2022-12-18T07:17:11;-9.20;99.90
48752;DHT22;34544;48.836;9.174;2022-12-18T07:19:36;-9.20;99.90
48752;DHT22;34544;48.836;9.174;2022-12-18T07:22:02;-9.10;99.90
48752;DHT22;34544;48.836;9.174;2022-12-18T07:24:28;-9.10;99.90
48752;DHT22;34544;48.836;9.174;2022-12-18T07:26:53;-9.10;99.90
48752;DHT22;34544;48.836;9.174;2022-12-18T07:29:19;-9.10;99.90
48752;DHT22;34544;48.836;9.174;2022-12-18T07:31:45;-9.10;99.90
48752;DHT22;34544;48.836;9.174;2022-12-18T07:34:11;-9.00;99.90
48752;DHT22;34544;48.836;9.174;2022-12-18T07:36:37;-9.00;99.90
48752;DHT22;34544;48.836;9.174;2022-12-18T07:39:03;-9.00;99.90
48752;DHT22;34544;48.836;9.174;2022-12-18T07:41:29;-9.00;99.90
48752;DHT22;34544;48.836;9.174;2022-12-18T07:43:54;-9.00;99.90
48752;DHT22;34544;48.836;9.174;2022-12-18T07:46:20;-8.90;99.90
48752;DHT22;34544;48.836;9.174;2022-12-18T07:48:46;-8.90;99.90
48752;DHT22;34544;48.836;9.174;2022-12-18T07:51:13;-8.90;99.90
48752;DHT22;34544;48.836;9.174;2022-12-18T07:53:39;-8.80;99.90
48752;DHT22;34544;48.836;9.174;2022-12-18T07:56:10;-8.70;99.90
48752;DHT22;34544;48.836;9.174;2022-12-18T07:58:36;-8.70;99.90
48752;DHT22;34544;48.836;9.174;2022-12-18T08:01:06;-8.60;99.90
48752;DHT22;34544;48.836;9.174;2022-12-18T08:03:33;-8.50;99.90
48752;DHT22;34544;48.836;9.174;2022-12-18T08:06:03;-8.50;99.90
48752;DHT22;34544;48.836;9.174;2022-12-18T08:08:30;-8.40;99.90
48752;DHT22;34544;48.836;9.174;2022-12-18T08:10:56;-8.30;99.90
48752;DHT22;34544;48.836;9.174;2022-12-18T08:13:22;-8.30;99.90
48752;DHT22;34544;48.836;9.174;2022-12-18T08:16:06;-8.20;99.90
48752;DHT22;34544;48.836;9.174;2022-12-18T08:18:33;-8.10;99.90
48752;DHT22;34544;48.836;9.174;2022-12-18T08:21:11;-8.10;99.90
48752;DHT22;34544;48.836;9.174;2022-12-18T08:23:38;-7.90;99.90
48752;DHT22;34544;48.836;9.174;2022-12-18T08:26:04;-7.80;99.90
48752;DHT22;34544;48.836;9.174;2022-12-18T08:28:29;-7.60;99.90
48752;DHT22;34544;48.836;9.174;2022-12-18T08:30:55;-7.50;99.90
48752;DHT22;34544;48.836;9.174;2022-12-18T08:33:21;-7.40;99.90
48752;DHT22;34544;48.836;9.174;2022-12-18T08:35:46;-7.30;99.90
48752;DHT22;34544;48.836;9.174;2022-12-18T08:38:12;-7.20;99.90
48752;DHT22;34544;48.836;9.174;2022-12-18T08:40:38;-7.00;99.90
48752;DHT22;34544;48.836;9.174;2022-12-18T08:43:03;-7.00;99.90
48752;DHT22;34544;48.836;9.174;2022-12-18T08:45:47;-6.80;99.90
48752;DHT22;34544;48.836;9.174;2022-12-18T08:48:13;-6.70;99.90
48752;DHT22;34544;48.836;9.174;2022-12-18T08:50:39;-6.50;99.90
48752;DHT22;34544;48.836;9.174;2022-12-18T08:53:12;-6.00;99.90
48752;DHT22;34544;48.836;9.174;2022-12-18T08:55:37;-5.60;99.90
48752;DHT22;34544;48.836;9.174;2022-12-18T08:58:03;-5.10;99.90
48752;DHT22;34544;48.836;9.174;2022-12-18T09:00:28;-4.60;99.90
48752;DHT22;34544;48.836;9.174;2022-12-18T09:02:54;-4.20;99.90
48752;DHT22;34544;48.836;9.174;2022-12-18T09:05:20;-3.80;99.90
48752;DHT22;34544;48.836;9.174;2022-12-18T09:07:45;-3.40;99.90
48752;DHT22;34544;48.836;9.174;2022-12-18T09:10:11;-3.10;99.90
48752;DHT22;34544;48.836;9.174;2022-12-18T09:12:37;-2.80;99.90
48752;DHT22;34544;48.836;9.174;2022-12-18T09:15:02;-2.50;99.90
48752;DHT22;34544;48.836;9.174;2022-12-18T09:17:28;-2.20;99.90
48752;DHT22;34544;48.836;9.174;2022-12-18T09:19:54;-2.00;99.90
48752;DHT22;34544;48.836;9.174;2022-12-18T09:22:19;-2.00;99.90
48752;DHT22;34544;48.836;9.174;2022-12-18T09:24:45;-1.80;99.90
48752;DHT22;34544;48.836;9.174;2022-12-18T09:27:11;-1.80;99.90
48752;DHT22;34544;48.836;9.174;2022-12-18T09:29:37;-1.70;99.90
48752;DHT22;34544;48.836;9.174;2022-12-18T09:32:02;-1.60;99.90
48752;DHT22;34544;48.836;9.174;2022-12-18T09:34:28;-1.50;99.90
48752;DHT22;34544;48.836;9.174;2022-12-18T09:36:54;-1.40;99.90
48752;DHT22;34544;48.836;9.174;2022-12-18T09:39:19;-1.20;99.90
48752;DHT22;34544;48.836;9.174;2022-12-18T09:41:56;-1.00;99.90
48752;DHT22;34544;48.836;9.174;2022-12-18T09:44:50;-1.00;99.90
48752;DHT22;34544;48.836;9.174;2022-12-18T09:47:34;-1.10;99.90
48752;DHT22;34544;48.836;9.174;2022-12-18T09:50:05;-1.00;99.90
48752;DHT22;34544;48.836;9.174;2022-12-18T09:52:43;-1.00;99.90
48752;DHT22;34544;48.836;9.174;2022-12-18T09:57:56;-1.00;99.90
48752;DHT22;34544;48.836;9.174;2022-12-18T10:00:26;-1.00;99.90
48752;DHT22;34544;48.836;9.174;2022-12-18T10:02:58;-0.70;99.90
48752;DHT22;34544;48.836;9.174;2022-12-18T10:10:55;-0.40;99.90
48752;DHT22;34544;48.836;9.174;2022-12-18T10:21:55;-0.10;99.90
48752;DHT22;34544;48.836;9.174;2022-12-18T10:27:04;0.10;99.90
48752;DHT22;34544;48.836;9.174;2022-12-18T10:29:34;0.30;99.90
48752;DHT22;34544;48.836;9.174;2022-12-18T10:31:59;0.60;99.90
48752;DHT22;34544;48.836;9.174;2022-12-18T10:34:25;0.80;99.90
48752;DHT22;34544;48.836;9.174;2022-12-18T10:36:51;1.20;99.90
48752;DHT22;34544;48.836;9.174;2022-12-18T10:39:24;1.70;99.90
48752;DHT22;34544;48.836;9.174;2022-12-18T10:42:18;1.90;99.90
48752;DHT22;34544;48.836;9.174;2022-12-18T10:44:45;2.00;99.90
48752;DHT22;34544;48.836;9.174;2022-12-18T10:47:14;2.10;99.90
48752;DHT22;34544;48.836;9.174;2022-12-18T10:49:50;2.10;99.90
48752;DHT22;34544;48.836;9.174;2022-12-18T10:52:21;2.00;99.90
48752;DHT22;34544;48.836;9.174;2022-12-18T10:54:50;2.20;99.90
48752;DHT22;34544;48.836;9.174;2022-12-18T10:57:32;2.30;99.90
48752;DHT22;34544;48.836;9.174;2022-12-18T10:59:59;2.50;99.90
48752;DHT22;34544;48.836;9.174;2022-12-18T11:02:34;2.50;99.90
48752;DHT22;34544;48.836;9.174;2022-12-18T11:05:00;2.60;99.90
48752;DHT22;34544;48.836;9.174;2022-12-18T11:07:49;2.70;99.90
48752;DHT22;34544;48.836;9.174;2022-12-18T11:10:21;2.70;99.90
48752;DHT22;34544;48.836;9.174;2022-12-18T11:12:47;2.60;99.90
48752;DHT22;34544;48.836;9.174;2022-12-18T11:15:20;2.50;99.90
48752;DHT22;34544;48.836;9.174;2022-12-18T11:17:48;2.60;99.90
48752;DHT22;34544;48.836;9.174;2022-12-18T11:23:04;2.80;99.90
48752;DHT22;34544;48.836;9.174;2022-12-18T11:25:32;2.80;99.90
48752;DHT22;34544;48.836;9.174;2022-12-18T11:28:00;2.90;99.90
48752;DHT22;34544;48.836;9.174;2022-12-18T11:30:33;2.80;99.90
48752;DHT22;34544;48.836;9.174;2022-12-18T11:33:09;2.80;99.90
48752;DHT22;34544;48.836;9.174;2022-12-18T11:35:51;2.80;99.90
48752;DHT22;34544;48.836;9.174;2022-12-18T11:38:23;2.90;99.90
48752;DHT22;34544;48.836;9.174;2022-12-18T11:40:58;2.70;99.90
48752;DHT22;34544;48.836;9.174;2022-12-18T11:43:52;2.60;99.90
48752;DHT22;34544;48.836;9.174;2022-12-18T11:46:27;2.40;99.90
48752;DHT22;34544;48.836;9.174;2022-12-18T11:49:01;2.20;99.90
48752;DHT22;34544;48.836;9.174;2022-12-18T11:51:34;2.00;99.90
48752;DHT22;34544;48.836;9.174;2022-12-18T11:54:01;2.10;99.90
48752;DHT22;34544;48.836;9.174;2022-12-18T11:56:36;2.30;99.90
48752;DHT22;34544;48.836;9.174;2022-12-18T12:05:10;2.00;99.90
48752;DHT22;34544;48.836;9.174;2022-12-18T12:07:46;1.80;99.90
48752;DHT22;34544;48.836;9.174;2022-12-18T12:10:25;1.70;99.90
48752;DHT22;34544;48.836;9.174;2022-12-18T12:22:23;0.40;99.90
48752;DHT22;34544;48.836;9.174;2022-12-18T12:27:43;0.20;99.90
48752;DHT22;34544;48.836;9.174;2022-12-18T12:30:29;0.10;99.90
48752;DHT22;34544;48.836;9.174;2022-12-18T12:35:39;-0.10;99.90
48752;DHT22;34544;48.836;9.174;2022-12-18T12:38:17;-0.10;99.90
48752;DHT22;34544;48.836;9.174;2022-12-18T12:40:53;-0.20;99.90
48752;DHT22;34544;48.836;9.174;2022-12-18T12:46:04;-0.30;99.90
48752;DHT22;34544;48.836;9.174;2022-12-18T12:48:46;-0.30;99.90
48752;DHT22;34544;48.836;9.174;2022-12-18T12:51:20;-0.20;99.90
48752;DHT22;34544;48.836;9.174;2022-12-18T12:53:47;-0.10;99.90
48752;DHT22;34544;48.836;9.174;2022-12-18T12:56:16;-0.10;99.90
48752;DHT22;34544;48.836;9.174;2022-12-18T13:10:13;0.20;99.90
48752;DHT22;34544;48.836;9.174;2022-12-18T13:12:55;0.20;99.90
48752;DHT22;34544;48.836;9.174;2022-12-18T13:23:32;0.50;99.90
48752;DHT22;34544;48.836;9.174;2022-12-18T13:34:18;0.50;99.90
48752;DHT22;34544;48.836;9.174;2022-12-18T13:36:45;0.50;99.90
48752;DHT22;34544;48.836;9.174;2022-12-18T13:41:40;0.50;99.90
48752;DHT22;34544;48.836;9.174;2022-12-18T13:44:33;0.50;99.90
48752;DHT22;34544;48.836;9.174;2022-12-18T13:47:01;0.50;99.90
48752;DHT22;34544;48.836;9.174;2022-12-18T13:52:21;0.50;99.90
48752;DHT22;34544;48.836;9.174;2022-12-18T13:54:57;0.40;99.90
48752;DHT22;34544;48.836;9.174;2022-12-18T13:57:33;0.30;99.90
48752;DHT22;34544;48.836;9.174;2022-12-18T14:02:48;0.30;99.90
48752;DHT22;34544;48.836;9.174;2022-12-18T14:05:24;0.30;99.90
48752;DHT22;34544;48.836;9.174;2022-12-18T14:07:51;0.20;99.90
48752;DHT22;34544;48.836;9.174;2022-12-18T14:10:18;0.20;99.90
48752;DHT22;34544;48.836;9.174;2022-12-18T14:12:48;0.10;99.90
48752;DHT22;34544;48.836;9.174;2022-12-18T14:20:50;-0.20;99.90
48752;DHT22;34544;48.836;9.174;2022-12-18T14:23:36;-0.20;99.90
48752;DHT22;34544;48.836;9.174;2022-12-18T14:28:47;-0.30;99.90
48752;DHT22;34544;48.836;9.174;2022-12-18T14:31:21;-0.30;99.90
48752;DHT22;34544;48.836;9.174;2022-12-18T14:33:47;-0.40;99.90
48752;DHT22;34544;48.836;9.174;2022-12-18T14:36:17;-0.50;99.90
48752;DHT22;34544;48.836;9.174;2022-12-18T14:38:43;-0.50;99.90
48752;DHT22;34544;48.836;9.174;2022-12-18T14:41:15;-0.60;99.90
48752;DHT22;34544;48.836;9.174;2022-12-18T14:43:42;-0.60;99.90
48752;DHT22;34544;48.836;9.174;2022-12-18T14:46:37;-0.70;99.90
48752;DHT22;34544;48.836;9.174;2022-12-18T14:49:27;-0.80;99.90
48752;DHT22;34544;48.836;9.174;2022-12-18T14:51:56;-0.80;99.90
48752;DHT22;34544;48.836;9.174;2022-12-18T14:54:24;-0.90;99.90
48752;DHT22;34544;48.836;9.174;2022-12-18T14:57:22;-0.90;99.90
48752;DHT22;34544;48.836;9.174;2022-12-18T14:59:48;-1.00;99.90
48752;DHT22;34544;48.836;9.174;2022-12-18T15:02:25;-1.00;99.90
48752;DHT22;34544;48.836;9.174;2022-12-18T15:05:27;-1.00;99.90
48752;DHT22;34544;48.836;9.174;2022-12-18T15:07:55;-1.10;99.90
48752;DHT22;34544;48.836;9.174;2022-12-18T15:10:24;-1.20;99.90
48752;DHT22;34544;48.836;9.174;2022-12-18T15:20:44;-1.40;99.90
48752;DHT22;34544;48.836;9.174;2022-12-18T15:25:58;-1.50;99.90
48752;DHT22;34544;48.836;9.174;2022-12-18T15:28:28;-1.50;99.90
48752;DHT22;34544;48.836;9.174;2022-12-18T15:33:29;-1.60;99.90
48752;DHT22;34544;48.836;9.174;2022-12-18T15:36:03;-1.60;99.90
48752;DHT22;34544;48.836;9.174;2022-12-18T15:38:29;-1.70;99.90
48752;DHT22;34544;48.836;9.174;2022-12-18T15:40:55;-1.80;99.90
48752;DHT22;34544;48.836;9.174;2022-12-18T15:43:22;-1.80;99.90
48752;DHT22;34544;48.836;9.174;2022-12-18T15:48:27;-2.00;99.90
48752;DHT22;34544;48.836;9.174;2022-12-18T15:50:55;-2.00;99.90
48752;DHT22;34544;48.836;9.174;2022-12-18T15:53:23;-2.10;99.90
48752;DHT22;34544;48.836;9.174;2022-12-18T15:55:49;-2.10;99.90
48752;DHT22;34544;48.836;9.174;2022-12-18T15:58:33;-2.10;99.90
48752;DHT22;34544;48.836;9.174;2022-12-18T16:01:00;-2.20;99.90
48752;DHT22;34544;48.836;9.174;2022-12-18T16:03:26;-2.20;99.90
48752;DHT22;34544;48.836;9.174;2022-12-18T16:05:52;-2.20;99.90
48752;DHT22;34544;48.836;9.174;2022-12-18T16:08:17;-2.30;99.90
48752;DHT22;34544;48.836;9.174;2022-12-18T16:10:43;-2.30;99.90
48752;DHT22;34544;48.836;9.174;2022-12-18T16:13:16;-2.30;99.90
48752;DHT22;34544;48.836;9.174;2022-12-18T16:15:44;-2.30;99.90
48752;DHT22;34544;48.836;9.174;2022-12-18T16:18:10;-2.30;99.90
48752;DHT22;34544;48.836;9.174;2022-12-18T16:20:36;-2.30;99.90
48752;DHT22;34544;48.836;9.174;2022-12-18T16:23:01;-2.30;99.90
48752;DHT22;34544;48.836;9.174;2022-12-18T16:25:28;-2.30;99.90
48752;DHT22;34544;48.836;9.174;2022-12-18T16:27:54;-2.30;99.90
48752;DHT22;34544;48.836;9.174;2022-12-18T16:30:26;-2.40;99.90
48752;DHT22;34544;48.836;9.174;2022-12-18T16:32:53;-2.40;99.90
48752;DHT22;34544;48.836;9.174;2022-12-18T16:35:19;-2.40;99.90
48752;DHT22;34544;48.836;9.174;2022-12-18T16:37:45;-2.40;99.90
48752;DHT22;34544;48.836;9.174;2022-12-18T16:40:15;-2.40;99.90
48752;DHT22;34544;48.836;9.174;2022-12-18T16:42:43;-2.40;99.90
48752;DHT22;34544;48.836;9.174;2022-12-18T16:45:12;-2.40;99.90
48752;DHT22;34544;48.836;9.174;2022-12-18T16:47:39;-2.40;99.90
48752;DHT22;34544;48.836;9.174;2022-12-18T16:50:05;-2.40;99.90
48752;DHT22;34544;48.836;9.174;2022-12-18T16:52:31;-2.30;99.90
48752;DHT22;34544;48.836;9.174;2022-12-18T16:54:58;-2.40;99.90
48752;DHT22;34544;48.836;9.174;2022-12-18T16:57:27;-2.40;99.90
48752;DHT22;34544;48.836;9.174;2022-12-18T16:59:53;-2.40;99.90
48752;DHT22;34544;48.836;9.174;2022-12-18T17:02:21;-2.30;99.90
48752;DHT22;34544;48.836;9.174;2022-12-18T17:04:48;-2.30;99.90
48752;DHT22;34544;48.836;9.174;2022-12-18T17:07:14;-2.30;99.90
48752;DHT22;34544;48.836;9.174;2022-12-18T17:09:40;-2.30;99.90
48752;DHT22;34544;48.836;9.174;2022-12-18T17:12:07;-2.30;99.90
48752;DHT22;34544;48.836;9.174;2022-12-18T17:14:33;-2.30;99.90
48752;DHT22;34544;48.836;9.174;2022-12-18T17:16:59;-2.20;99.90
48752;DHT22;34544;48.836;9.174;2022-12-18T17:19:26;-2.20;99.90
48752;DHT22;34544;48.836;9.174;2022-12-18T17:21:52;-2.20;99.90
48752;DHT22;34544;48.836;9.174;2022-12-18T17:24:18;-2.20;99.90
48752;DHT22;34544;48.836;9.174;2022-12-18T17:26:45;-2.20;99.90
48752;DHT22;34544;48.836;9.174;2022-12-18T17:29:14;-2.10;99.90
48752;DHT22;34544;48.836;9.174;2022-12-18T17:31:40;-2.10;99.90
48752;DHT22;34544;48.836;9.174;2022-12-18T17:34:05;-2.10;99.90
48752;DHT22;34544;48.836;9.174;2022-12-18T17:36:31;-2.10;99.90
48752;DHT22;34544;48.836;9.174;2022-12-18T17:38:59;-2.10;99.90
48752;DHT22;34544;48.836;9.174;2022-12-18T17:41:26;-2.10;99.90
48752;DHT22;34544;48.836;9.174;2022-12-18T17:43:53;-2.00;99.90
48752;DHT22;34544;48.836;9.174;2022-12-18T17:46:20;-2.00;99.90
48752;DHT22;34544;48.836;9.174;2022-12-18T17:48:46;-2.00;99.90
48752;DHT22;34544;48.836;9.174;2022-12-18T17:51:12;-2.00;99.90
48752;DHT22;34544;48.836;9.174;2022-12-18T17:53:38;-1.90;99.90
48752;DHT22;34544;48.836;9.174;2022-12-18T17:56:05;-1.90;99.90